Time;durP1;ratioP1;P1;durP2;ratioP2;P2;SDS_P1;SDS_P2;PMS_P1;PMS_P2;Temp;Humidity;BMP_temperature;BMP_pressure;BME280_temperature;BME280_humidity;BME280_pressure;Samples;Min_cycle;Max_cycle;Signal;HPM_P1;HPM_P2
2023/04/26 00:01:47;;;;;;;5.88;2.20;;;15.70;61.10;;;;;;5052031;28;20112;-74
2023/04/26 00:04:13;;;;;;;7.32;2.00;;;15.70;61.30;;;;;;5051741;28;20037;-74
2023/04/26 00:06:39;;;;;;;7.68;2.90;;;15.70;61.40;;;;;;5033858;28;20044;-74
2023/04/26 00:09:05;;;;;;;5.45;2.40;;;15.70;61.60;;;;;;5033879;28;20033;-75
2023/04/26 00:11:31;;;;;;;4.50;1.90;;;15.60;61.40;;;;;;5051558;28;20120;-75
2023/04/26 00:13:59;;;;;;;6.22;1.98;;;15.60;61.40;;;;;;5052036;28;20108;-75
2023/04/26 00:16:25;;;;;;;6.07;2.03;;;15.50;61.30;;;;;;5052071;28;20147;-75
2023/04/26 00:18:51;;;;;;;6.35;2.60;;;15.40;61.60;;;;;;5040186;28;20495;-73
2023/04/26 00:21:16;;;;;;;6.25;2.00;;;15.40;61.50;;;;;;5012140;28;20446;-72
2023/04/26 00:23:42;;;;;;;4.22;2.08;;;15.40;61.70;;;;;;4998102;28;20081;-74
2023/04/26 00:26:08;;;;;;;7.22;2.42;;;15.30;62.00;;;;;;5015878;28;20034;-73
2023/04/26 00:28:33;;;;;;;5.65;2.30;;;15.30;62.00;;;;;;5015575;28;20081;-75
2023/04/26 00:30:59;;;;;;;9.98;2.45;;;15.30;62.10;;;;;;5015618;28;20425;-74
2023/04/26 00:33:25;;;;;;;7.78;2.20;;;15.30;62.20;;;;;;5015423;28;20034;-74
2023/04/26 00:35:51;;;;;;;6.82;2.30;;;15.30;62.30;;;;;;5015540;28;20041;-74
2023/04/26 00:38:17;;;;;;;7.05;2.38;;;15.30;62.30;;;;;;5015497;28;20061;-74
2023/04/26 00:40:43;;;;;;;6.25;2.38;;;15.30;62.40;;;;;;5015451;28;20053;-74
2023/04/26 00:43:09;;;;;;;5.50;2.25;;;15.30;62.20;;;;;;5015050;28;20054;-74
2023/04/26 00:45:35;;;;;;;6.65;2.40;;;15.40;62.40;;;;;;5015434;28;20578;-74
2023/04/26 00:48:02;;;;;;;6.30;2.30;;;15.30;62.60;;;;;;5015623;28;20034;-75
2023/04/26 00:50:30;;;;;;;6.45;2.25;;;15.30;62.40;;;;;;5015290;28;20037;-73
2023/04/26 00:53:00;;;;;;;5.15;1.92;;;15.40;62.60;;;;;;5015217;28;20515;-74
2023/04/26 00:55:26;;;;;;;6.05;2.30;;;15.40;62.70;;;;;;5015222;28;20137;-72
2023/04/26 00:57:52;;;;;;;6.65;2.30;;;15.40;62.60;;;;;;5015077;28;20033;-75
2023/04/26 01:00:18;;;;;;;5.63;1.90;;;15.30;62.70;;;;;;5014954;28;20117;-75
2023/04/26 01:02:44;;;;;;;5.13;2.22;;;15.20;62.60;;;;;;5015105;28;20042;-75
2023/04/26 01:05:10;;;;;;;6.78;2.80;;;15.20;62.60;;;;;;5014582;28;20038;-74
2023/04/26 01:07:37;;;;;;;7.00;2.50;;;15.20;63.00;;;;;;5014821;28;20030;-74
2023/04/26 01:10:08;;;;;;;6.35;2.13;;;15.20;63.10;;;;;;5014799;28;20121;-74
2023/04/26 01:12:35;;;;;;;4.85;2.00;;;15.20;63.70;;;;;;5014773;28;20033;-74
2023/04/26 01:15:02;;;;;;;8.43;2.30;;;15.10;63.00;;;;;;5014845;28;20065;-74
2023/04/26 01:17:28;;;;;;;4.80;2.10;;;15.10;63.40;;;;;;5014925;28;20503;-74
2023/04/26 01:19:54;;;;;;;5.55;2.30;;;15.10;63.60;;;;;;5014708;28;20037;-73
2023/04/26 01:22:20;;;;;;;5.55;2.10;;;15.10;63.30;;;;;;5014481;28;20446;-74
2023/04/26 01:24:48;;;;;;;4.97;2.00;;;15.00;63.40;;;;;;5014594;28;20527;-74
2023/04/26 01:27:15;;;;;;;6.38;2.20;;;15.00;63.50;;;;;;5014793;28;20179;-74
2023/04/26 01:29:41;;;;;;;6.55;2.00;;;15.00;63.50;;;;;;5014601;28;20144;-74
2023/04/26 01:32:07;;;;;;;6.00;1.80;;;15.00;63.60;;;;;;5014481;28;20026;-72
2023/04/26 01:34:33;;;;;;;6.90;2.20;;;14.90;63.50;;;;;;5014237;28;20045;-74
2023/04/26 01:37:00;;;;;;;5.10;1.98;;;14.90;63.80;;;;;;5014415;28;20122;-73
2023/04/26 01:39:26;;;;;;;5.05;2.30;;;14.90;63.60;;;;;;4997066;28;20034;-74
2023/04/26 01:41:52;;;;;;;7.13;2.25;;;14.80;63.60;;;;;;5014412;28;20110;-74
2023/04/26 01:44:18;;;;;;;4.00;1.73;;;14.90;63.60;;;;;;5014197;28;20138;-74
2023/04/26 01:46:44;;;;;;;5.05;2.05;;;14.80;64.20;;;;;;5014305;28;20065;-73
2023/04/26 01:49:10;;;;;;;7.88;2.40;;;14.70;63.80;;;;;;4996612;28;20068;-72
2023/04/26 01:51:35;;;;;;;5.40;1.85;;;14.60;63.90;;;;;;5014168;28;20425;-73
2023/04/26 01:54:01;;;;;;;6.20;1.90;;;14.60;63.90;;;;;;5014212;28;20096;-73
2023/04/26 01:56:27;;;;;;;5.05;2.13;;;14.60;64.00;;;;;;5014163;28;20077;-73
2023/04/26 01:58:55;;;;;;;7.93;2.15;;;14.60;64.10;;;;;;5013946;28;20163;-73
2023/04/26 02:01:21;;;;;;;4.07;1.88;;;14.50;64.00;;;;;;5013598;28;20399;-73
2023/04/26 02:03:48;;;;;;;4.80;2.00;;;14.50;64.30;;;;;;4996084;28;20049;-73
2023/04/26 02:06:13;;;;;;;4.88;2.15;;;14.40;64.30;;;;;;4996309;28;20037;-73
2023/04/26 02:08:39;;;;;;;6.22;2.20;;;14.30;64.30;;;;;;5013794;28;20084;-73
2023/04/26 02:11:05;;;;;;;5.53;2.08;;;14.20;64.50;;;;;;5014561;28;20443;-73
2023/04/26 02:13:31;;;;;;;5.50;1.83;;;14.20;65.10;;;;;;5015220;28;20092;-73
2023/04/26 02:15:58;;;;;;;4.28;1.63;;;14.20;64.60;;;;;;5014286;28;20097;-72
2023/04/26 02:18:23;;;;;;;5.28;2.00;;;14.10;64.90;;;;;;5013801;28;20119;-73
2023/04/26 02:20:49;;;;;;;6.88;2.13;;;14.10;64.60;;;;;;5013614;28;20073;-73
2023/04/26 02:23:15;;;;;;;4.10;1.80;;;14.00;64.80;;;;;;5013453;28;20054;-71
2023/04/26 02:25:44;;;;;;;5.35;1.90;;;14.00;64.90;;;;;;5013598;28;20026;-73
2023/04/26 02:28:09;;;;;;;8.15;2.10;;;13.90;64.40;;;;;;5013606;28;20439;-73
2023/04/26 02:30:35;;;;;;;9.38;3.63;;;13.90;64.90;;;;;;5013480;28;20030;-73
2023/04/26 02:33:01;;;;;;;6.55;2.20;;;13.80;65.10;;;;;;4995771;28;20069;-73
2023/04/26 02:35:26;;;;;;;6.10;2.30;;;13.80;65.40;;;;;;5013226;28;20033;-72
2023/04/26 02:37:52;;;;;;;4.05;1.92;;;13.70;65.50;;;;;;5013555;28;20040;-73
2023/04/26 02:40:18;;;;;;;6.15;2.03;;;13.80;65.70;;;;;;5013324;28;20550;-73
2023/04/26 02:42:45;;;;;;;4.72;2.00;;;13.80;65.80;;;;;;5013665;28;20104;-73
2023/04/26 02:45:11;;;;;;;5.90;2.17;;;13.80;66.20;;;;;;5013917;28;20030;-72
2023/04/26 02:47:37;;;;;;;4.25;1.92;;;13.80;65.90;;;;;;5014764;28;20034;-72
2023/04/26 02:50:04;;;;;;;7.35;2.33;;;13.80;66.00;;;;;;5013680;28;20428;-72
2023/04/26 02:52:30;;;;;;;4.00;1.85;;;13.70;66.60;;;;;;5013011;28;20034;-72
2023/04/26 02:54:55;;;;;;;6.55;1.90;;;13.70;66.20;;;;;;5012948;28;20056;-73
2023/04/26 02:57:21;;;;;;;3.15;1.63;;;13.60;66.50;;;;;;5012964;28;20038;-72
2023/04/26 02:59:47;;;;;;;7.03;2.20;;;13.60;66.50;;;;;;5012978;28;20030;-73
2023/04/26 03:02:12;;;;;;;8.05;2.10;;;13.60;66.50;;;;;;5012696;28;20034;-72
2023/04/26 03:04:38;;;;;;;5.57;1.98;;;13.60;66.60;;;;;;5013077;28;20109;-73
2023/04/26 03:07:05;;;;;;;4.63;1.98;;;13.70;66.80;;;;;;5013027;28;20038;-74
2023/04/26 03:09:30;;;;;;;6.75;1.90;;;13.70;66.70;;;;;;5012758;28;20029;-72
2023/04/26 03:11:56;;;;;;;4.80;1.80;;;13.70;66.80;;;;;;5013612;28;20550;-73
2023/04/26 03:14:22;;;;;;;5.68;1.80;;;13.60;66.80;;;;;;5013255;28;20555;-72
2023/04/26 03:16:47;;;;;;;5.68;1.90;;;13.70;67.10;;;;;;5013292;28;20042;-74
2023/04/26 03:19:13;;;;;;;6.18;1.80;;;13.60;66.70;;;;;;5013417;28;20059;-72
2023/04/26 03:21:39;;;;;;;5.65;2.00;;;13.60;66.70;;;;;;5012667;28;20061;-73
2023/04/26 03:24:06;;;;;;;5.55;2.00;;;13.60;67.10;;;;;;5012483;28;20080;-73
2023/04/26 03:26:32;;;;;;;5.93;2.13;;;13.60;67.20;;;;;;5012695;28;20034;-72
2023/04/26 03:28:58;;;;;;;4.97;1.80;;;13.60;67.10;;;;;;5012048;28;20050;-72
2023/04/26 03:31:23;;;;;;;2.92;1.70;;;13.60;67.30;;;;;;5013005;28;20042;-72
2023/04/26 03:33:50;;;;;;;8.75;2.08;;;13.60;67.40;;;;;;5012440;28;20403;-74
2023/04/26 03:36:16;;;;;;;6.70;2.42;;;13.50;67.20;;;;;;4994808;28;20087;-73
2023/04/26 03:38:42;;;;;;;7.63;2.85;;;13.50;67.20;;;;;;5012852;28;20117;-72
2023/04/26 03:41:07;;;;;;;6.55;2.60;;;13.50;67.40;;;;;;5012294;28;20030;-73
2023/04/26 03:43:33;;;;;;;4.13;2.10;;;13.40;67.50;;;;;;4994650;28;20109;-73
2023/04/26 03:45:59;;;;;;;4.93;2.20;;;13.50;67.60;;;;;;5012413;28;20033;-74
2023/04/26 03:48:26;;;;;;;5.50;2.03;;;13.50;67.70;;;;;;5012324;28;20037;-73
2023/04/26 03:50:52;;;;;;;8.13;3.15;;;13.40;67.50;;;;;;5012188;28;20113;-73
2023/04/26 03:53:18;;;;;;;4.28;2.22;;;13.40;68.00;;;;;;5012347;28;20551;-73
2023/04/26 03:55:43;;;;;;;5.90;2.65;;;13.30;67.90;;;;;;4994803;28;20125;-72
2023/04/26 03:58:09;;;;;;;6.32;2.38;;;13.20;68.20;;;;;;4997111;28;20065;-72
2023/04/26 04:00:41;;;;;;;8.35;3.00;;;13.10;68.40;;;;;;5016262;28;20030;-71
2023/04/26 04:03:07;;;;;;;7.32;2.88;;;13.20;69.00;;;;;;4998264;28;20046;-73
2023/04/26 04:05:32;;;;;;;5.85;2.60;;;13.20;68.90;;;;;;5015855;28;20030;-73
2023/04/26 04:07:58;;;;;;;4.75;2.40;;;13.20;68.70;;;;;;5016206;28;20045;-73
2023/04/26 04:10:24;;;;;;;6.00;2.17;;;13.20;68.50;;;;;;5016609;28;20033;-73
2023/04/26 04:12:51;;;;;;;6.07;2.40;;;13.20;68.40;;;;;;4998298;28;20046;-76
2023/04/26 04:15:18;;;;;;;5.80;2.65;;;13.20;68.60;;;;;;5016144;28;20033;-72
2023/04/26 04:17:43;;;;;;;5.18;2.22;;;13.10;68.70;;;;;;5015724;28;20084;-72
2023/04/26 04:20:10;;;;;;;7.55;3.28;;;13.10;68.70;;;;;;5015617;28;20091;-72
2023/04/26 04:22:38;;;;;;;4.53;2.22;;;13.20;69.20;;;;;;5015312;28;20132;-73
2023/04/26 04:25:05;;;;;;;6.82;2.20;;;13.20;68.90;;;;;;5015721;28;20113;-73
2023/04/26 04:27:31;;;;;;;5.15;2.28;;;13.10;69.00;;;;;;5015516;28;20118;-73
2023/04/26 04:29:57;;;;;;;4.22;2.05;;;13.10;68.90;;;;;;5015585;28;20049;-73
2023/04/26 04:32:22;;;;;;;6.38;2.05;;;13.10;69.00;;;;;;5015437;28;20037;-72
2023/04/26 04:34:50;;;;;;;6.35;2.70;;;13.00;69.00;;;;;;5015305;28;20460;-73
2023/04/26 04:37:15;;;;;;;6.03;2.80;;;13.00;69.00;;;;;;5015868;28;20061;-72
2023/04/26 04:39:41;;;;;;;6.00;2.17;;;13.10;69.00;;;;;;5015504;28;20491;-72
2023/04/26 04:42:07;;;;;;;5.47;2.30;;;13.10;68.70;;;;;;5015340;28;20046;-71
2023/04/26 04:44:33;;;;;;;6.20;2.63;;;13.20;68.90;;;;;;5015305;28;20049;-74
2023/04/26 04:46:58;;;;;;;6.10;2.42;;;13.20;68.70;;;;;;5015216;28;20037;-73
2023/04/26 04:49:24;;;;;;;7.18;3.78;;;13.30;68.70;;;;;;5015312;28;20030;-73
2023/04/26 04:51:50;;;;;;;9.43;2.65;;;13.30;68.70;;;;;;5015221;28;20034;-72
2023/04/26 04:54:17;;;;;;;5.72;2.60;;;13.30;68.40;;;;;;5015172;28;20535;-73
2023/04/26 04:56:44;;;;;;;6.05;2.40;;;13.30;68.60;;;;;;4997373;28;20049;-72
2023/04/26 04:59:10;;;;;;;8.70;2.53;;;13.30;68.70;;;;;;5015174;28;20026;-72
2023/04/26 05:01:37;;;;;;;5.47;2.70;;;13.30;68.70;;;;;;5014850;28;20112;-73
2023/04/26 05:04:03;;;;;;;11.98;2.90;;;13.30;68.70;;;;;;5014540;28;20057;-72
2023/04/26 05:06:32;;;;;;;7.63;2.70;;;13.30;68.80;;;;;;5014720;28;20095;-72
2023/04/26 05:08:58;;;;;;;5.90;2.42;;;13.30;69.10;;;;;;5014297;28;20053;-73
2023/04/26 05:11:24;;;;;;;4.75;2.22;;;13.20;68.50;;;;;;5014765;28;20468;-73
2023/04/26 05:13:50;;;;;;;6.47;2.47;;;13.30;68.90;;;;;;5014908;28;20034;-72
2023/04/26 05:16:15;;;;;;;5.70;2.65;;;13.20;68.60;;;;;;5014631;28;20030;-73
2023/04/26 05:18:41;;;;;;;6.78;2.88;;;13.30;68.80;;;;;;5014564;28;20038;-73
2023/04/26 05:21:07;;;;;;;7.47;2.50;;;13.40;68.80;;;;;;5014618;28;20034;-74
2023/04/26 05:23:33;;;;;;;8.02;3.00;;;13.40;68.60;;;;;;5014851;28;20484;-73
2023/04/26 05:26:06;;;;;;;7.32;3.15;;;13.50;68.40;;;;;;5014410;28;20037;-72
2023/04/26 05:28:33;;;;;;;5.68;2.38;;;13.60;68.30;;;;;;5014484;28;20080;-72
2023/04/26 05:31:00;;;;;;;7.65;2.97;;;13.70;68.20;;;;;;5014560;28;20061;-72
2023/04/26 05:33:27;;;;;;;7.53;2.90;;;13.70;67.80;;;;;;5014202;28;20026;-71
2023/04/26 05:35:53;;;;;;;6.00;2.60;;;13.80;67.70;;;;;;5014027;28;20037;-72
2023/04/26 05:38:20;;;;;;;8.52;2.40;;;14.00;67.70;;;;;;5013910;28;20076;-73
2023/04/26 05:40:47;;;;;;;6.30;2.95;;;14.20;67.20;;;;;;4996493;28;20033;-72
2023/04/26 05:43:13;;;;;;;5.78;2.60;;;14.30;66.30;;;;;;5013946;28;20046;-73
2023/04/26 05:45:39;;;;;;;5.25;2.10;;;14.50;65.70;;;;;;5014410;28;20026;-74
2023/04/26 05:48:05;;;;;;;5.07;2.40;;;14.70;64.90;;;;;;4996359;28;20349;-73
2023/04/26 05:50:31;;;;;;;5.07;2.42;;;15.00;64.70;;;;;;5014221;28;20487;-73
2023/04/26 05:52:57;;;;;;;4.53;2.30;;;15.20;63.90;;;;;;5031186;28;21068;-69
2023/04/26 05:55:23;;;;;;;5.30;2.38;;;15.40;63.30;;;;;;5033390;28;20545;-69
2023/04/26 05:57:49;;;;;;;5.60;2.38;;;15.60;63.10;;;;;;5024180;28;20033;-75
2023/04/26 06:00:15;;;;;;;5.40;2.28;;;15.70;62.00;;;;;;5022876;28;20080;-70
2023/04/26 06:02:41;;;;;;;6.32;2.50;;;15.90;62.20;;;;;;5033932;28;20053;-74
2023/04/26 06:05:07;;;;;;;6.47;2.22;;;16.00;61.90;;;;;;5033606;28;20029;-72
2023/04/26 06:07:33;;;;;;;10.13;2.85;;;16.10;61.80;;;;;;5015837;28;20091;-73
2023/04/26 06:10:02;;;;;;;11.88;2.63;;;16.40;61.00;;;;;;5034036;28;20033;-74
2023/04/26 06:12:27;;;;;;;12.18;3.15;;;16.60;60.20;;;;;;5033321;28;20029;-73
2023/04/26 06:14:53;;;;;;;7.68;2.50;;;16.70;59.60;;;;;;5033523;28;20041;-73
2023/04/26 06:17:19;;;;;;;12.88;2.60;;;16.80;58.90;;;;;;5032945;28;20502;-73
2023/04/26 06:19:45;;;;;;;10.93;3.10;;;16.80;58.40;;;;;;5014290;28;20132;-72
2023/04/26 06:22:10;;;;;;;15.63;2.88;;;16.90;58.00;;;;;;5032909;28;20436;-71
2023/04/26 06:24:36;;;;;;;11.77;3.13;;;17.00;58.10;;;;;;5033100;28;20026;-70
2023/04/26 06:27:02;;;;;;;11.85;2.95;;;17.10;57.80;;;;;;5033147;28;20037;-72
2023/04/26 06:29:31;;;;;;;12.85;2.45;;;17.20;57.00;;;;;;5032698;28;20440;-71
2023/04/26 06:31:57;;;;;;;12.27;3.03;;;17.20;56.20;;;;;;5032969;28;20040;-72
2023/04/26 06:34:22;;;;;;;13.43;2.72;;;17.30;56.90;;;;;;5032734;28;20029;-72
2023/04/26 06:36:48;;;;;;;12.00;2.90;;;17.50;56.80;;;;;;5029692;28;20125;-71
2023/04/26 06:39:14;;;;;;;11.05;2.22;;;17.60;56.00;;;;;;5019418;28;20030;-72
2023/04/26 06:41:40;;;;;;;7.35;1.98;;;17.70;55.70;;;;;;5022268;28;20092;-71
2023/04/26 06:44:06;;;;;;;5.47;1.73;;;17.60;55.00;;;;;;5023424;28;20475;-71
2023/04/26 06:46:31;;;;;;;7.97;2.40;;;17.60;55.10;;;;;;5021983;28;20053;-71
2023/04/26 06:48:57;;;;;;;4.70;2.20;;;17.60;54.90;;;;;;5022492;28;20112;-71
2023/04/26 06:51:23;;;;;;;7.53;2.42;;;17.70;54.80;;;;;;5022706;28;20471;-71
2023/04/26 06:53:48;;;;;;;5.18;1.90;;;18.00;54.70;;;;;;5020646;28;20103;-71
2023/04/26 06:56:14;;;;;;;4.97;1.92;;;18.10;53.50;;;;;;5012800;28;20505;-72
2023/04/26 06:58:56;;;;;;;5.85;1.92;;;18.10;53.70;;;;;;5012730;28;20041;-71
2023/04/26 07:01:22;;;;;;;8.63;1.90;;;18.20;53.40;;;;;;4997030;28;20105;-71
2023/04/26 07:03:47;;;;;;;6.47;2.20;;;18.20;53.10;;;;;;5012548;28;20124;-71
2023/04/26 07:06:13;;;;;;;10.35;2.10;;;18.20;52.80;;;;;;5016992;28;20034;-71
2023/04/26 07:08:39;;;;;;;7.95;2.45;;;18.30;52.90;;;;;;5034178;28;20044;-72
2023/04/26 07:11:09;;;;;;;5.53;1.77;;;18.40;53.20;;;;;;5052269;28;20086;-73
2023/04/26 07:13:35;;;;;;;7.57;2.50;;;18.60;52.60;;;;;;5052049;28;20494;-72
2023/04/26 07:16:00;;;;;;;9.35;2.40;;;18.70;52.90;;;;;;5052044;28;20080;-72
2023/04/26 07:18:26;;;;;;;3.90;1.73;;;19.00;52.70;;;;;;5052030;28;20037;-72
2023/04/26 07:20:51;;;;;;;8.85;2.22;;;18.90;51.30;;;;;;5051797;28;20056;-74
2023/04/26 07:23:17;;;;;;;11.90;2.17;;;18.90;51.20;;;;;;5051839;28;20045;-72
2023/04/26 07:25:43;;;;;;;11.18;3.03;;;19.00;51.40;;;;;;5051869;28;20031;-74
2023/04/26 07:28:08;;;;;;;11.57;2.35;;;19.10;51.00;;;;;;5023658;28;20050;-72
2023/04/26 07:30:34;;;;;;;11.52;2.47;;;19.20;51.00;;;;;;5011994;28;20400;-73
2023/04/26 07:33:00;;;;;;;12.68;2.55;;;19.20;50.60;;;;;;4993959;28;20049;-72
2023/04/26 07:35:26;;;;;;;6.30;1.70;;;19.40;50.80;;;;;;5012088;28;20527;-74
2023/04/26 07:37:52;;;;;;;10.13;1.90;;;19.30;50.00;;;;;;5012066;28;20121;-72
2023/04/26 07:40:18;;;;;;;6.10;1.90;;;19.30;49.60;;;;;;4994250;28;20037;-74
2023/04/26 07:42:44;;;;;;;5.43;1.80;;;19.20;49.90;;;;;;5011838;28;20049;-73
2023/04/26 07:45:10;;;;;;;4.05;1.80;;;19.00;49.70;;;;;;5011878;28;20030;-73
2023/04/26 07:47:36;;;;;;;9.63;2.10;;;19.00;49.90;;;;;;5011912;28;20132;-74
2023/04/26 07:50:02;;;;;;;4.13;1.80;;;18.90;50.20;;;;;;5012310;28;20030;-73
2023/04/26 07:52:27;;;;;;;7.53;1.95;;;19.10;50.20;;;;;;4994787;28;20030;-73
2023/04/26 07:54:53;;;;;;;6.88;1.77;;;19.20;50.70;;;;;;5012008;28;20436;-74
2023/04/26 07:57:19;;;;;;;4.05;1.77;;;19.10;50.40;;;;;;5011576;28;20038;-73
2023/04/26 07:59:44;;;;;;;5.25;1.77;;;19.20;50.10;;;;;;5011640;28;20060;-73
2023/04/26 08:02:10;;;;;;;6.65;2.03;;;19.30;50.30;;;;;;5011900;28;20037;-74
2023/04/26 08:04:36;;;;;;;8.25;2.20;;;19.30;50.40;;;;;;5011697;28;20073;-72
2023/04/26 08:07:02;;;;;;;5.32;1.75;;;19.30;50.40;;;;;;5012128;28;20117;-74
2023/04/26 08:09:29;;;;;;;6.18;1.80;;;19.20;50.10;;;;;;5011408;28;20033;-73
2023/04/26 08:11:55;;;;;;;7.70;1.80;;;19.20;50.50;;;;;;5011909;28;20459;-73
2023/04/26 08:14:21;;;;;;;6.43;1.90;;;19.30;50.80;;;;;;5011510;28;20561;-72
2023/04/26 08:16:46;;;;;;;7.78;2.17;;;19.30;50.40;;;;;;5011699;28;20033;-74
2023/04/26 08:19:12;;;;;;;17.95;2.80;;;19.30;50.40;;;;;;5011585;28;20029;-73
2023/04/26 08:21:38;;;;;;;7.10;2.00;;;19.20;50.40;;;;;;5011576;28;20038;-73
2023/04/26 08:24:04;;;;;;;7.05;1.90;;;19.10;50.30;;;;;;5011554;28;20045;-73
2023/04/26 08:26:29;;;;;;;5.47;2.03;;;19.10;50.10;;;;;;5011338;28;20042;-73
2023/04/26 08:28:56;;;;;;;4.88;1.80;;;19.00;49.80;;;;;;5011341;28;20092;-73
2023/04/26 08:31:21;;;;;;;10.35;2.35;;;18.90;49.90;;;;;;4993805;28;20046;-72
2023/04/26 08:33:47;;;;;;;6.75;1.70;;;18.90;49.80;;;;;;5011764;28;20034;-73
2023/04/26 08:36:14;;;;;;;9.27;1.80;;;18.90;49.50;;;;;;5011467;28;20377;-73
2023/04/26 08:38:39;;;;;;;5.60;1.95;;;18.90;49.40;;;;;;5011477;28;20046;-73
2023/04/26 08:41:08;;;;;;;9.63;1.90;;;19.00;49.50;;;;;;5011878;28;20117;-73
2023/04/26 08:43:37;;;;;;;8.45;1.70;;;18.90;49.00;;;;;;5012878;28;20050;-74
2023/04/26 08:46:06;;;;;;;8.55;2.25;;;18.90;48.10;;;;;;5015494;28;20030;-73
2023/04/26 08:48:35;;;;;;;7.35;1.60;;;18.80;48.70;;;;;;5015202;28;20118;-73
2023/04/26 08:51:01;;;;;;;7.30;1.60;;;19.00;48.80;;;;;;5015262;28;20037;-74
2023/04/26 08:53:28;;;;;;;7.40;1.90;;;19.10;48.60;;;;;;4997315;28;20498;-73
2023/04/26 08:55:54;;;;;;;7.68;1.80;;;19.10;48.30;;;;;;5014945;28;20173;-73
2023/04/26 08:58:21;;;;;;;4.90;1.90;;;19.20;48.10;;;;;;5014836;28;20117;-73
2023/04/26 09:00:47;;;;;;;6.15;1.50;;;19.20;48.10;;;;;;5014654;28;20034;-72
2023/04/26 09:03:13;;;;;;;5.65;1.63;;;19.20;47.70;;;;;;5014682;28;20045;-73
2023/04/26 09:05:39;;;;;;;3.90;1.58;;;19.20;47.50;;;;;;4997075;28;20206;-73
2023/04/26 09:08:07;;;;;;;5.88;1.65;;;19.20;47.90;;;;;;5014688;28;20380;-72
2023/04/26 09:10:33;;;;;;;7.00;1.85;;;19.20;47.10;;;;;;5014425;28;20052;-73
2023/04/26 09:12:58;;;;;;;5.00;1.92;;;19.20;47.40;;;;;;5014671;28;20204;-73
2023/04/26 09:15:26;;;;;;;8.57;2.03;;;19.30;47.30;;;;;;5014920;28;20484;-73
2023/04/26 09:17:52;;;;;;;7.05;2.22;;;19.40;47.30;;;;;;5014890;28;20458;-72
2023/04/26 09:20:27;;;;;;;7.35;2.05;;;19.50;47.20;;;;;;4996487;28;20072;-73
2023/04/26 09:23:08;;;;;;;5.32;1.70;;;19.50;45.60;;;;;;5014252;28;20120;-72
2023/04/26 09:25:34;;;;;;;8.65;1.63;;;19.60;46.80;;;;;;5014667;28;20042;-73
2023/04/26 09:28:02;;;;;;;2.78;1.20;;;19.70;46.70;;;;;;4996743;28;20034;-72
2023/04/26 09:30:29;;;;;;;5.82;1.65;;;19.70;45.90;;;;;;5014196;28;20042;-74
2023/04/26 09:33:03;;;;;;;4.78;1.75;;;19.70;45.80;;;;;;4996927;28;20116;-72
2023/04/26 09:35:43;;;;;;;4.38;1.25;;;19.80;45.30;;;;;;4996352;28;20444;-73
2023/04/26 09:38:12;;;;;;;4.55;1.60;;;19.90;44.80;;;;;;5014122;28;20042;-74
2023/04/26 09:40:46;;;;;;;6.63;1.38;;;19.90;43.60;;;;;;5014387;28;20030;-74
2023/04/26 09:43:14;;;;;;;7.93;1.33;;;19.80;42.30;;;;;;5014490;28;20554;-73
2023/04/26 09:45:55;;;;;;;4.03;1.77;;;19.90;43.90;;;;;;4996796;28;20029;-74
2023/04/26 09:48:22;;;;;;;8.40;1.90;;;20.00;42.20;;;;;;5013711;28;20445;-73
2023/04/26 09:50:51;;;;;;;5.05;1.60;;;20.10;43.80;;;;;;5013622;28;20123;-74
2023/04/26 09:53:33;;;;;;;7.18;1.80;;;20.20;43.60;;;;;;5013529;28;20112;-73
2023/04/26 09:56:08;;;;;;;4.78;1.67;;;20.20;43.10;;;;;;5012577;28;20034;-74
2023/04/26 09:58:56;;;;;;;4.85;1.80;;;20.20;41.10;;;;;;5013235;28;20033;-73
2023/04/26 10:01:22;;;;;;;6.53;1.63;;;20.30;42.60;;;;;;5013396;28;20092;-74
2023/04/26 10:03:48;;;;;;;7.97;1.77;;;20.30;41.40;;;;;;5013472;28;20046;-74
2023/04/26 10:06:17;;;;;;;3.25;1.23;;;20.40;41.50;;;;;;5013507;28;20108;-73
2023/04/26 10:08:44;;;;;;;4.82;1.30;;;20.50;41.30;;;;;;5013357;28;20148;-73
2023/04/26 10:11:10;;;;;;;3.63;1.30;;;20.60;40.00;;;;;;5013303;28;20065;-74
2023/04/26 10:13:36;;;;;;;3.10;1.35;;;20.60;39.30;;;;;;4995763;28;20052;-74
2023/04/26 10:16:03;;;;;;;4.25;1.38;;;20.70;39.20;;;;;;5013406;28;20074;-73
2023/04/26 10:18:32;;;;;;;2.95;1.27;;;20.70;38.90;;;;;;5013160;28;20022;-74
2023/04/26 10:21:20;;;;;;;4.90;2.08;;;20.80;39.10;;;;;;5013306;28;20061;-73
2023/04/26 10:23:47;;;;;;;6.18;2.35;;;20.90;38.90;;;;;;5012762;28;20070;-74
2023/04/26 10:26:56;;;;;;;3.85;1.20;;;21.00;38.60;;;;;;5013037;28;20050;-73
2023/04/26 10:29:46;;;;;;;4.65;1.40;;;21.00;37.30;;;;;;5013117;28;20124;-73
2023/04/26 10:32:15;;;;;;;3.17;1.30;;;21.10;38.70;;;;;;5013028;28;20126;-74
2023/04/26 10:34:42;;;;;;;4.25;1.50;;;21.20;38.50;;;;;;4995340;28;20483;-73
2023/04/26 10:37:12;;;;;;;3.22;1.50;;;21.30;38.50;;;;;;4995307;28;20448;-73
2023/04/26 10:39:40;;;;;;;3.45;1.27;;;21.30;37.40;;;;;;4995505;28;20033;-74
2023/04/26 10:42:24;;;;;;;4.80;1.10;;;21.40;38.30;;;;;;5013135;28;20029;-74
2023/04/26 10:44:57;;;;;;;4.68;1.83;;;21.30;36.30;;;;;;5012844;28;20038;-74
2023/04/26 10:47:30;;;;;;;5.18;1.67;;;21.40;37.60;;;;;;5012903;28;20045;-73
2023/04/26 10:50:07;;;;;;;3.70;1.33;;;21.40;36.60;;;;;;5012897;28;20058;-74
2023/04/26 10:52:34;;;;;;;3.47;1.33;;;21.50;36.60;;;;;;5012893;28;20042;-72
2023/04/26 10:55:01;;;;;;;12.05;3.25;;;21.50;36.80;;;;;;5012973;28;20034;-74
2023/04/26 10:57:49;;;;;;;3.15;1.25;;;21.60;36.40;;;;;;5012844;28;20482;-73
2023/04/26 11:00:24;;;;;;;8.27;1.38;;;21.70;36.50;;;;;;5012705;28;20108;-73
2023/04/26 11:02:57;;;;;;;4.85;1.35;;;21.80;36.30;;;;;;5012570;28;20046;-74
2023/04/26 11:05:43;;;;;;;6.38;1.42;;;21.90;35.40;;;;;;5012762;28;20040;-73
2023/04/26 11:08:17;;;;;;;4.35;1.60;;;21.90;34.30;;;;;;5012604;28;20030;-73
2023/04/26 11:11:09;;;;;;;5.32;2.10;;;22.00;34.90;;;;;;5012307;28;20037;-72
2023/04/26 11:13:37;;;;;;;5.82;1.30;;;22.10;35.60;;;;;;5011896;28;20122;-73
2023/04/26 11:16:08;;;;;;;5.05;1.60;;;22.20;35.40;;;;;;5012626;28;20030;-73
2023/04/26 11:18:35;;;;;;;2.33;1.10;;;22.20;33.40;;;;;;5012627;28;20116;-73
2023/04/26 11:21:01;;;;;;;4.72;1.63;;;22.30;34.10;;;;;;5012807;28;20048;-74
2023/04/26 11:23:29;;;;;;;2.50;1.27;;;22.30;33.20;;;;;;5012131;28;20205;-74
2023/04/26 11:25:59;;;;;;;3.63;1.70;;;22.50;32.60;;;;;;5012555;28;20047;-72
2023/04/26 11:28:24;;;;;;;4.47;1.05;;;22.60;32.60;;;;;;5013018;28;20050;-72
2023/04/26 11:30:51;;;;;;;3.83;1.15;;;22.70;31.80;;;;;;5012432;28;20506;-74
2023/04/26 11:33:19;;;;;;;3.70;1.15;;;22.70;31.10;;;;;;4994691;28;20045;-73
2023/04/26 11:35:46;;;;;;;1.88;1.00;;;22.70;30.60;;;;;;5012492;28;20112;-73
2023/04/26 11:38:12;;;;;;;1.98;1.05;;;22.80;30.20;;;;;;5012362;28;20030;-74
2023/04/26 11:40:38;;;;;;;1.45;0.90;;;22.80;30.10;;;;;;5012170;28;20034;-73
2023/04/26 11:43:05;;;;;;;1.83;0.95;;;22.90;29.70;;;;;;5012519;28;20050;-73
2023/04/26 11:45:34;;;;;;;2.92;1.08;;;22.80;29.20;;;;;;5012135;28;20056;-74
2023/04/26 11:48:02;;;;;;;5.35;1.30;;;22.80;29.30;;;;;;4994282;28;20464;-74
2023/04/26 11:50:30;;;;;;;4.63;0.95;;;22.70;29.00;;;;;;5012407;28;20034;-74
2023/04/26 11:52:58;;;;;;;4.18;1.17;;;22.60;29.10;;;;;;4994530;28;20068;-73
2023/04/26 11:55:27;;;;;;;2.65;1.05;;;22.70;29.90;;;;;;5012697;28;20416;-74
2023/04/26 21:28:13;;;;;;;8.48;2.83;;;17.20;68.30;;;;;;5022004;28;20107;-73
2023/04/26 21:30:38;;;;;;;9.18;2.95;;;17.20;68.00;;;;;;5013459;28;20125;-73
2023/04/26 21:33:04;;;;;;;8.38;2.67;;;17.10;68.20;;;;;;5014936;28;20536;-74
2023/04/26 21:35:30;;;;;;;8.02;2.85;;;17.10;68.70;;;;;;5014848;28;20526;-73
2023/04/26 21:37:55;;;;;;;9.23;2.80;;;17.10;68.90;;;;;;5014138;28;20042;-74
2023/04/26 21:40:21;;;;;;;7.53;2.92;;;17.10;68.90;;;;;;5013284;28;20053;-75
2023/04/26 21:42:46;;;;;;;9.63;3.05;;;17.10;69.20;;;;;;5012946;28;20034;-74
2023/04/26 21:45:12;;;;;;;10.48;3.35;;;17.10;69.50;;;;;;5014427;28;20049;-73
2023/04/26 21:47:38;;;;;;;6.93;3.20;;;17.00;69.70;;;;;;5014244;28;20033;-76
2023/04/26 21:50:05;;;;;;;11.32;3.92;;;17.00;69.70;;;;;;5014218;28;20042;-74
2023/04/26 21:52:31;;;;;;;9.60;3.70;;;17.00;70.00;;;;;;5014517;28;20085;-74
2023/04/26 21:54:56;;;;;;;11.55;3.65;;;17.00;70.30;;;;;;5014283;28;20061;-74
2023/04/26 21:57:22;;;;;;;13.50;3.97;;;17.00;70.40;;;;;;5014276;28;20045;-74
2023/04/26 21:59:49;;;;;;;8.00;3.50;;;17.00;70.40;;;;;;5014360;28;20112;-74
2023/04/26 22:02:15;;;;;;;9.27;3.75;;;17.00;70.60;;;;;;5014527;28;20046;-74
2023/04/26 22:04:40;;;;;;;8.55;3.72;;;17.00;70.60;;;;;;5014295;28;20403;-74
2023/04/26 22:07:06;;;;;;;7.75;3.50;;;17.00;70.80;;;;;;5014088;28;20488;-75
2023/04/26 22:09:31;;;;;;;9.40;4.05;;;17.00;70.90;;;;;;5014228;28;20065;-73
2023/04/26 22:11:57;;;;;;;9.70;3.97;;;17.00;71.10;;;;;;4996484;28;20045;-74
2023/04/26 22:14:23;;;;;;;10.75;4.60;;;17.00;71.10;;;;;;5014024;28;20038;-74
2023/04/26 22:16:48;;;;;;;10.10;4.18;;;16.90;71.10;;;;;;5014178;28;20037;-74